Time;durP1;ratioP1;P1;durP2;ratioP2;P2;SDS_P1;SDS_P2;PMS_P1;PMS_P2;Temp;Humidity;BMP_temperature;BMP_pressure;BME280_temperature;BME280_humidity;BME280_pressure;Samples;Min_cycle;Max_cycle;Signal;HPM_P1;HPM_P2
2023/03/29 00:00:13;;;;;;;10.50;5.68;;;;;;;;;;5077114;28;20047;-78
2023/03/29 00:02:42;;;;;;;9.40;5.75;;;;;;;;;;5075404;28;20063;-78
2023/03/29 00:05:08;;;;;;;10.40;5.60;;;;;;;;;;5059269;28;20058;-77
2023/03/29 00:07:33;;;;;;;10.68;5.85;;;;;;;;;;5075227;28;20048;-79
2023/03/29 00:10:00;;;;;;;9.82;5.50;;;;;;;;;;5076832;28;20025;-79
2023/03/29 00:12:25;;;;;;;8.25;5.50;;;;;;;;;;5058879;28;20366;-78
2023/03/29 00:14:51;;;;;;;11.40;5.53;;;;;;;;;;5025823;28;20048;-80
2023/03/29 00:17:16;;;;;;;15.30;6.22;;;;;;;;;;5038338;28;20025;-78
2023/03/29 00:19:43;;;;;;;10.18;6.10;;;;;;;;;;5022116;28;20029;-79
2023/03/29 00:22:08;;;;;;;9.40;5.97;;;;;;;;;;5056306;28;20115;-78
2023/03/29 00:24:34;;;;;;;12.27;5.57;;;;;;;;;;5054278;28;20044;-78
2023/03/29 00:27:00;;;;;;;12.95;5.60;;;;;;;;;;5038828;28;20029;-78
2023/03/29 00:29:25;;;;;;;10.25;5.82;;;;;;;;;;5056513;28;20027;-78
2023/03/29 00:31:53;;;;;;;13.02;5.47;;;;;;;;;;5054501;28;20131;-78
2023/03/29 00:34:30;;;;;;;10.68;6.00;;;;;;;;;;5055189;28;20079;-78
2023/03/29 00:36:56;;;;;;;14.35;5.93;;;;;;;;;;5055167;28;20021;-78
2023/03/29 00:39:22;;;;;;;10.15;5.45;;;;;;;;;;5038352;28;20029;-77
2023/03/29 00:41:48;;;;;;;16.20;5.68;;;;;;;;;;5038365;28;20074;-77
2023/03/29 00:44:51;;;;;;;9.98;5.32;;;;;;;;;;5038124;28;20035;-78
2023/03/29 00:47:17;;;;;;;8.70;5.45;;;;;;;;;;5055002;28;20029;-78
2023/03/29 00:49:44;;;;;;;12.73;5.72;;;;;;;;;;5038469;28;20035;-78
2023/03/29 00:52:10;;;;;;;14.13;5.40;;;;;;;;;;5038313;28;20033;-78
2023/03/29 00:54:36;;;;;;;11.80;5.53;;;;;;;;;;5054887;28;20082;-77
2023/03/29 00:57:02;;;;;;;12.93;5.25;;;;;;;;;;5056204;28;20078;-78
2023/03/29 00:59:28;;;;;;;9.68;5.85;;;;;;;;;;5057938;28;20451;-78
2023/03/29 01:01:58;;;;;;;8.85;4.85;;;;;;;;;;5057804;28;20024;-78
2023/03/29 01:04:24;;;;;;;13.05;6.30;;;;;;;;;;5041708;28;20037;-77
2023/03/29 01:06:55;;;;;;;11.75;5.18;;;;;;;;;;5074757;28;20117;-77
2023/03/29 01:09:21;;;;;;;11.30;4.88;;;;;;;;;;5057997;28;20025;-78
2023/03/29 01:11:50;;;;;;;10.15;5.43;;;;;;;;;;5057961;28;20062;-78
2023/03/29 01:14:32;;;;;;;9.85;5.82;;;;;;;;;;5057774;28;20439;-78
2023/03/29 01:16:58;;;;;;;8.52;5.38;;;;;;;;;;5029221;28;20068;-78
2023/03/29 01:19:25;;;;;;;8.95;5.07;;;;;;;;;;5074624;28;20054;-78
2023/03/29 01:21:52;;;;;;;20.25;6.15;;;;;;;;;;5060742;28;20020;-77
2023/03/29 01:24:45;;;;;;;13.27;6.47;;;;;;;;;;5060807;28;20180;-77
2023/03/29 01:27:50;;;;;;;9.43;5.47;;;;;;;;;;5095407;28;20023;-78
2023/03/29 01:30:43;;;;;;;10.80;5.90;;;;;;;;;;5077048;28;20054;-78
2023/03/29 01:33:22;;;;;;;17.13;6.22;;;;;;;;;;5061847;28;20119;-77
2023/03/29 01:35:51;;;;;;;13.88;6.07;;;;;;;;;;5062341;28;20445;-77
2023/03/29 01:38:20;;;;;;;11.95;5.57;;;;;;;;;;5060580;28;20111;-77
2023/03/29 01:40:46;;;;;;;13.07;7.10;;;;;;;;;;5060770;28;20032;-78
2023/03/29 01:43:18;;;;;;;12.20;6.78;;;;;;;;;;5060191;28;20039;-77
2023/03/29 01:45:59;;;;;;;11.48;6.28;;;;;;;;;;5095077;28;20529;-77
2023/03/29 01:48:36;;;;;;;;;;;;;;;;;;5062491;28;20031;-78
2023/03/29 01:51:11;;;;;;;13.38;6.35;;;;;;;;;;5095082;28;19911;-78
2023/03/29 01:53:42;;;;;;;8.00;5.05;;;;;;;;;;5077893;28;20028;-78
2023/03/29 01:56:18;;;;;;;15.50;7.18;;;;;;;;;;5076918;28;20044;-78
2023/03/29 01:58:50;;;;;;;14.25;7.22;;;;;;;;;;5060606;28;20028;-78
2023/03/29 02:01:18;;;;;;;11.77;5.50;;;;;;;;;;5044117;28;20059;-78
2023/03/29 02:03:48;;;;;;;14.27;6.82;;;;;;;;;;5060613;28;20377;-77
2023/03/29 02:06:15;;;;;;;17.75;7.38;;;;;;;;;;5060701;28;20437;-78
2023/03/29 02:08:40;;;;;;;16.25;6.75;;;;;;;;;;5043790;28;20040;-78
2023/03/29 02:11:06;;;;;;;13.18;6.50;;;;;;;;;;5060080;28;20028;-78
2023/03/29 02:13:33;;;;;;;15.15;7.28;;;;;;;;;;5060005;28;20035;-80
2023/03/29 02:16:01;;;;;;;12.30;6.55;;;;;;;;;;5077162;28;20087;-78
2023/03/29 02:18:27;;;;;;;14.68;6.90;;;;;;;;;;5077029;28;20026;-77
2023/03/29 02:20:53;;;;;;;12.98;7.03;;;;;;;;;;5051983;28;20429;-78
2023/03/29 02:23:32;;;;;;;14.65;7.30;;;;;;;;;;5043199;28;20028;-77
2023/03/29 02:25:58;;;;;;;11.52;6.97;;;;;;;;;;5044040;28;20029;-77
2023/03/29 02:28:24;;;;;;;17.27;7.22;;;;;;;;;;5039237;28;20033;-77
2023/03/29 02:31:08;;;;;;;20.73;7.53;;;;;;;;;;5074242;28;20447;-77
2023/03/29 02:33:37;;;;;;;12.38;7.32;;;;;;;;;;5074025;28;20029;-78
2023/03/29 02:36:23;;;;;;;16.50;7.50;;;;;;;;;;5056203;28;20411;-78
2023/03/29 02:38:49;;;;;;;18.98;6.97;;;;;;;;;;5073157;28;20039;-79
2023/03/29 02:41:16;;;;;;;14.40;7.07;;;;;;;;;;5022745;28;20119;-78
2023/03/29 02:43:42;;;;;;;14.80;6.55;;;;;;;;;;5023533;28;20028;-78
2023/03/29 02:46:07;;;;;;;17.08;8.38;;;;;;;;;;5022676;28;20038;-79
2023/03/29 02:48:33;;;;;;;14.55;7.30;;;;;;;;;;5039070;28;20116;-78
2023/03/29 02:51:00;;;;;;;16.70;8.30;;;;;;;;;;5039270;28;20029;-78
2023/03/29 02:53:34;;;;;;;14.75;7.78;;;;;;;;;;5039212;28;20036;-79
2023/03/29 02:56:02;;;;;;;12.57;6.65;;;;;;;;;;5022547;28;20048;-78
2023/03/29 02:58:28;;;;;;;7.90;4.65;;;;;;;;;;5039969;28;20036;-78
2023/03/29 03:00:54;;;;;;;14.98;4.82;;;;;;;;;;5073521;28;20020;-78
2023/03/29 03:03:20;;;;;;;8.05;4.80;;;;;;;;;;5039179;28;20032;-78
2023/03/29 03:05:46;;;;;;;7.78;4.90;;;;;;;;;;5073784;28;20028;-79
2023/03/29 03:08:12;;;;;;;11.15;4.82;;;;;;;;;;5055942;28;20065;-78
2023/03/29 03:10:38;;;;;;;7.28;4.90;;;;;;;;;;5039233;28;20361;-78
2023/03/29 03:13:04;;;;;;;9.73;5.07;;;;;;;;;;5039134;28;20032;-78
2023/03/29 03:15:31;;;;;;;10.60;5.05;;;;;;;;;;5055859;28;20047;-78
2023/03/29 03:17:57;;;;;;;9.82;5.32;;;;;;;;;;5039612;28;20024;-78
2023/03/29 03:20:22;;;;;;;10.98;5.35;;;;;;;;;;5039136;28;20147;-78
2023/03/29 03:22:48;;;;;;;11.88;5.47;;;;;;;;;;5055697;28;20035;-78
2023/03/29 03:25:15;;;;;;;15.23;5.78;;;;;;;;;;5038706;28;20031;-78
2023/03/29 03:27:41;;;;;;;10.00;5.55;;;;;;;;;;5039464;28;20449;-79
2023/03/29 03:30:08;;;;;;;15.65;6.40;;;;;;;;;;5055882;28;20024;-79
2023/03/29 03:32:33;;;;;;;11.43;6.43;;;;;;;;;;5039409;28;20032;-80
2023/03/29 03:34:59;;;;;;;12.93;5.72;;;;;;;;;;5039128;28;20042;-78
2023/03/29 03:37:25;;;;;;;12.20;5.13;;;;;;;;;;5039077;28;20098;-79
2023/03/29 03:39:50;;;;;;;11.57;5.72;;;;;;;;;;5038791;28;20024;-79
2023/03/29 03:42:16;;;;;;;10.63;5.25;;;;;;;;;;5055627;28;20028;-80
2023/03/29 03:44:41;;;;;;;8.43;4.68;;;;;;;;;;5039136;28;20064;-79
2023/03/29 03:47:07;;;;;;;12.00;5.35;;;;;;;;;;5056034;28;20024;-79
2023/03/29 03:49:33;;;;;;;12.40;5.97;;;;;;;;;;5018142;28;20751;-79
2023/03/29 03:51:58;;;;;;;7.57;4.30;;;;;;;;;;5056269;28;20047;-78
2023/03/29 03:54:24;;;;;;;10.57;4.97;;;;;;;;;;5055132;28;20021;-79
2023/03/29 03:56:49;;;;;;;8.80;4.93;;;;;;;;;;5073016;28;20377;-78
2023/03/29 03:59:15;;;;;;;13.27;5.93;;;;;;;;;;5058073;28;20035;-79
2023/03/29 04:01:45;;;;;;;11.02;5.78;;;;;;;;;;5042317;28;20032;-78
2023/03/29 04:04:11;;;;;;;11.70;5.60;;;;;;;;;;5027200;28;20025;-78
2023/03/29 04:06:37;;;;;;;12.38;5.90;;;;;;;;;;5042390;28;20032;-78
2023/03/29 04:09:03;;;;;;;11.18;5.75;;;;;;;;;;5042142;28;20032;-79
2023/03/29 04:11:28;;;;;;;12.90;5.68;;;;;;;;;;5058418;28;20024;-79
2023/03/29 04:13:54;;;;;;;10.20;5.30;;;;;;;;;;5042230;28;20467;-79
2023/03/29 04:16:19;;;;;;;7.45;4.25;;;;;;;;;;5058677;28;20421;-78
2023/03/29 04:18:45;;;;;;;11.90;5.25;;;;;;;;;;5058526;28;20024;-78
2023/03/29 04:21:11;;;;;;;11.45;4.95;;;;;;;;;;5042044;28;20033;-78
2023/03/29 04:23:36;;;;;;;11.80;6.18;;;;;;;;;;5041915;28;20029;-78
2023/03/29 04:26:02;;;;;;;10.10;5.53;;;;;;;;;;5042118;28;20436;-79
2023/03/29 04:28:27;;;;;;;11.25;5.72;;;;;;;;;;5041983;28;20412;-79
2023/03/29 04:30:53;;;;;;;12.32;5.72;;;;;;;;;;5058435;28;20032;-78
2023/03/29 04:33:18;;;;;;;12.38;6.28;;;;;;;;;;5042061;28;20472;-79
2023/03/29 04:35:43;;;;;;;19.08;6.43;;;;;;;;;;5041836;28;20029;-80
2023/03/29 04:38:10;;;;;;;8.00;5.30;;;;;;;;;;5058110;28;20406;-79
2023/03/29 04:40:35;;;;;;;15.95;6.25;;;;;;;;;;5058651;28;20032;-78
2023/03/29 04:43:01;;;;;;;15.13;6.38;;;;;;;;;;5041776;28;20047;-78
2023/03/29 04:45:27;;;;;;;8.82;4.68;;;;;;;;;;5056509;28;20361;-78
2023/03/29 04:47:58;;;;;;;9.20;5.35;;;;;;;;;;5037300;28;20036;-78
2023/03/29 04:50:24;;;;;;;12.30;5.30;;;;;;;;;;5036180;28;20036;-77
2023/03/29 04:52:50;;;;;;;13.13;6.40;;;;;;;;;;5034813;28;20032;-76
2023/03/29 04:55:16;;;;;;;18.00;5.75;;;;;;;;;;5064655;28;20265;-78
2023/03/29 04:57:45;;;;;;;13.07;6.13;;;;;;;;;;5048862;28;20230;-78
2023/03/29 05:00:15;;;;;;;15.07;6.57;;;;;;;;;;5065475;28;20067;-77
2023/03/29 05:02:44;;;;;;;15.95;6.43;;;;;;;;;;5065962;28;20728;-77
2023/03/29 05:05:10;;;;;;;12.95;6.30;;;;;;;;;;5065054;28;20047;-78
2023/03/29 05:07:35;;;;;;;12.05;5.45;;;;;;;;;;5042836;28;20385;-79
2023/03/29 05:10:04;;;;;;;9.52;5.20;;;;;;;;;;5063719;28;20040;-77
2023/03/29 05:12:30;;;;;;;13.70;5.63;;;;;;;;;;5064608;28;20044;-79
2023/03/29 05:14:56;;;;;;;11.90;5.90;;;;;;;;;;5063661;28;20029;-77
2023/03/29 05:17:22;;;;;;;11.68;6.25;;;;;;;;;;5047861;28;20385;-77
2023/03/29 05:19:48;;;;;;;13.13;5.80;;;;;;;;;;5052054;28;20025;-80
2023/03/29 05:22:14;;;;;;;13.95;5.45;;;;;;;;;;5046513;28;20040;-76
2023/03/29 05:24:40;;;;;;;11.32;5.47;;;;;;;;;;5048225;28;20056;-78
2023/03/29 05:27:06;;;;;;;11.55;5.30;;;;;;;;;;5069189;28;20366;-79
2023/03/29 05:29:33;;;;;;;13.20;5.70;;;;;;;;;;5062479;28;20035;-79
2023/03/29 05:31:58;;;;;;;12.75;5.80;;;;;;;;;;5050280;28;20507;-78
2023/03/29 05:34:25;;;;;;;11.85;5.95;;;;;;;;;;5027393;28;20235;-77
2023/03/29 05:36:51;;;;;;;13.93;6.13;;;;;;;;;;5014490;28;20628;-78
2023/03/29 05:39:16;;;;;;;13.93;6.53;;;;;;;;;;5027349;28;20036;-80
2023/03/29 05:41:42;;;;;;;18.88;6.70;;;;;;;;;;5068244;28;20043;-76
2023/03/29 05:44:08;;;;;;;11.80;5.95;;;;;;;;;;5074151;28;20027;-78
2023/03/29 05:46:34;;;;;;;15.43;5.68;;;;;;;;;;5070672;28;20497;-78
2023/03/29 05:49:00;;;;;;;12.90;6.40;;;;;;;;;;5073431;28;20040;-79
2023/03/29 05:51:42;;;;;;;16.83;7.20;;;;;;;;;;5050134;28;20077;-77
2023/03/29 05:57:29;;;;;;;20.67;6.78;;;;;;;;;;5025481;22;20707;-79
2023/03/29 05:59:55;;;;;;;20.48;7.22;;;;;;;;;;5008228;28;20029;-77
2023/03/29 06:02:21;;;;;;;15.13;6.95;;;;;;;;;;5008515;28;20028;-79
2023/03/29 06:04:47;;;;;;;18.75;7.07;;;;;;;;;;5006927;28;20046;-80
2023/03/29 06:07:13;;;;;;;18.15;7.45;;;;;;;;;;5008010;28;20064;-78
2023/03/29 06:09:39;;;;;;;21.70;7.28;;;;;;;;;;4997805;28;20052;-78
2023/03/29 06:12:05;;;;;;;23.92;10.73;;;;;;;;;;5000090;28;20096;-78
2023/03/29 06:14:31;;;;;;;21.73;9.73;;;;;;;;;;5008819;28;20057;-80
2023/03/29 06:16:56;;;;;;;22.23;8.90;;;;;;;;;;4993903;28;20030;-79
2023/03/29 06:19:22;;;;;;;34.95;19.85;;;;;;;;;;5009111;28;20033;-80
2023/03/29 06:21:48;;;;;;;26.77;13.90;;;;;;;;;;5006463;28;20168;-78
2023/03/29 06:24:13;;;;;;;24.35;12.10;;;;;;;;;;5008847;28;20036;-79
2023/03/29 06:26:39;;;;;;;19.73;11.07;;;;;;;;;;5014331;28;20037;-79
2023/03/29 06:29:04;;;;;;;19.45;9.88;;;;;;;;;;5016397;28;20430;-78
2023/03/29 06:31:30;;;;;;;15.32;6.68;;;;;;;;;;5000582;28;20140;-78
2023/03/29 06:33:57;;;;;;;10.38;6.40;;;;;;;;;;5008124;28;20360;-78
2023/03/29 06:36:23;;;;;;;12.00;6.05;;;;;;;;;;5011883;28;20045;-79
2023/03/29 06:38:48;;;;;;;12.48;5.60;;;;;;;;;;5008760;28;20037;-77
2023/03/29 06:41:15;;;;;;;13.20;6.25;;;;;;;;;;5006695;28;20030;-80
2023/03/29 06:43:41;;;;;;;11.70;5.70;;;;;;;;;;5009492;28;20034;-80
2023/03/29 06:46:10;;;;;;;16.15;6.90;;;;;;;;;;5009039;28;20042;-80
2023/03/29 06:48:37;;;;;;;13.98;6.38;;;;;;;;;;5011639;28;20025;-78
2023/03/29 06:51:03;;;;;;;10.95;5.90;;;;;;;;;;5007257;28;20025;-80
2023/03/29 06:53:30;;;;;;;11.30;6.25;;;;;;;;;;5003750;28;20095;-77
2023/03/29 06:55:55;;;;;;;17.23;6.75;;;;;;;;;;5017083;28;20034;-80
2023/03/29 06:58:21;;;;;;;15.70;6.30;;;;;;;;;;5031233;28;20049;-81
2023/03/29 07:00:47;;;;;;;10.23;5.40;;;;;;;;;;5006545;28;20042;-78
2023/03/29 07:03:19;;;;;;;14.65;6.63;;;;;;;;;;4990363;28;20436;-80
2023/03/29 07:05:46;;;;;;;10.32;5.97;;;;;;;;;;4982483;28;20034;-80
2023/03/29 07:08:12;;;;;;;13.43;5.75;;;;;;;;;;5009907;28;20084;-79
2023/03/29 07:10:43;;;;;;;16.05;7.05;;;;;;;;;;5007637;28;20044;-79
2023/03/29 07:13:12;;;;;;;25.20;12.15;;;;;;;;;;4991242;28;20092;-80
2023/03/29 07:15:38;;;;;;;23.05;13.27;;;;;;;;;;5009431;28;20062;-76
2023/03/29 07:18:03;;;;;;;11.35;5.20;;;;;;;;;;4993691;28;20032;-78
2023/03/29 07:20:29;;;;;;;7.40;4.80;;;;;;;;;;5007671;28;20030;-80
2023/03/29 07:22:54;;;;;;;11.48;5.80;;;;;;;;;;5009591;28;20072;-79
2023/03/29 07:25:24;;;;;;;18.35;6.00;;;;;;;;;;5013243;28;20111;-79
2023/03/29 07:27:50;;;;;;;12.02;5.82;;;;;;;;;;5012389;28;20042;-79
2023/03/29 07:30:18;;;;;;;9.02;5.13;;;;;;;;;;4994878;28;20026;-79
2023/03/29 07:32:45;;;;;;;13.63;5.55;;;;;;;;;;4997842;28;20390;-78
2023/03/29 07:35:11;;;;;;;11.57;5.28;;;;;;;;;;5010207;28;20030;-77
2023/03/29 07:37:37;;;;;;;10.85;6.22;;;;;;;;;;5012225;28;20033;-78
2023/03/29 07:40:07;;;;;;;12.95;6.55;;;;;;;;;;5017456;28;20120;-78
2023/03/29 07:42:35;;;;;;;10.80;6.00;;;;;;;;;;5015337;28;20049;-78
2023/03/29 07:45:02;;;;;;;16.55;7.32;;;;;;;;;;5008223;28;20041;-79
2023/03/29 07:47:28;;;;;;;10.52;5.70;;;;;;;;;;5036420;28;20057;-79
2023/03/29 07:49:54;;;;;;;11.43;5.60;;;;;;;;;;5030614;28;20053;-78
2023/03/29 07:52:20;;;;;;;9.35;5.28;;;;;;;;;;5012704;28;20058;-79
2023/03/29 07:54:46;;;;;;;9.43;5.07;;;;;;;;;;5008929;28;20036;-76
2023/03/29 07:57:11;;;;;;;11.38;5.30;;;;;;;;;;5007341;28;20156;-78
2023/03/29 07:59:37;;;;;;;9.38;5.68;;;;;;;;;;5010739;28;20025;-80
2023/03/29 08:02:02;;;;;;;9.38;4.75;;;;;;;;;;5010624;28;20447;-80
2023/03/29 08:04:28;;;;;;;45.60;18.70;;;;;;;;;;5013433;28;20045;-79
2023/03/29 08:06:54;;;;;;;10.20;4.93;;;;;;;;;;5015362;28;20527;-78
2023/03/29 08:09:20;;;;;;;16.73;6.35;;;;;;;;;;5006732;28;20042;-80
2023/03/29 08:11:46;;;;;;;13.50;6.50;;;;;;;;;;4998880;28;20121;-78
2023/03/29 08:14:13;;;;;;;8.98;5.15;;;;;;;;;;5015324;28;20030;-79
2023/03/29 08:16:39;;;;;;;12.80;4.82;;;;;;;;;;5014058;28;20403;-80
2023/03/29 08:19:07;;;;;;;10.38;4.85;;;;;;;;;;4979650;28;20060;-78
2023/03/29 08:21:32;;;;;;;10.48;4.78;;;;;;;;;;4980324;28;20654;-78
2023/03/29 08:23:58;;;;;;;9.80;4.80;;;;;;;;;;4997487;28;20085;-78
2023/03/29 08:26:23;;;;;;;13.38;5.05;;;;;;;;;;4997651;28;20044;-79
2023/03/29 08:28:49;;;;;;;15.73;5.63;;;;;;;;;;4994121;28;20097;-81
2023/03/29 08:31:15;;;;;;;8.57;4.78;;;;;;;;;;4994895;28;20042;-78
2023/03/29 08:34:02;;;;;;;9.82;4.55;;;;;;;;;;5009433;28;20132;-80
2023/03/29 08:37:07;;;;;;;9.95;4.82;;;;;;;;;;4998915;28;20030;-76
2023/03/29 08:39:31;;;;;;;11.85;5.68;;;;;;;;;;4999262;28;20061;-78
2023/03/29 08:42:35;;;;;;;13.35;4.85;;;;;;;;;;4998398;28;20026;-77
2023/03/29 08:45:09;;;;;;;9.02;4.00;;;;;;;;;;4999411;28;20085;-80
2023/03/29 08:48:06;;;;;;;10.95;4.47;;;;;;;;;;4999562;28;20045;-78
2023/03/29 08:50:35;;;;;;;7.47;4.25;;;;;;;;;;4999415;28;20081;-79
2023/03/29 08:53:05;;;;;;;9.43;4.05;;;;;;;;;;4964836;28;20038;-77
2023/03/29 08:55:40;;;;;;;9.73;4.10;;;;;;;;;;5004309;28;20483;-78
2023/03/29 08:58:10;;;;;;;8.68;4.45;;;;;;;;;;5026077;28;20038;-78
2023/03/29 09:00:44;;;;;;;15.10;6.88;;;;;;;;;;5037847;28;20116;-77
2023/03/29 09:03:22;;;;;;;27.33;15.38;;;;;;;;;;5036153;28;20100;-79
2023/03/29 09:06:05;;;;;;;11.02;5.20;;;;;;;;;;5037374;28;20056;-79
2023/03/29 09:08:31;;;;;;;10.68;4.22;;;;;;;;;;4996934;28;20474;-79
2023/03/29 09:11:12;;;;;;;8.25;4.05;;;;;;;;;;4996333;28;20121;-78
2023/03/29 09:13:59;;;;;;;11.93;4.50;;;;;;;;;;4995611;28;20041;-78
2023/03/29 09:16:33;;;;;;;9.18;5.00;;;;;;;;;;4994951;28;20116;-78
2023/03/29 09:19:17;;;;;;;10.40;5.30;;;;;;;;;;4992974;28;20026;-80
2023/03/29 09:21:49;;;;;;;7.60;4.25;;;;;;;;;;4993835;28;20588;-79
2023/03/29 09:24:18;;;;;;;6.13;4.05;;;;;;;;;;4976695;28;20031;-78
2023/03/29 09:26:46;;;;;;;11.90;4.43;;;;;;;;;;4994035;28;20045;-78
2023/03/29 09:29:52;;;;;;;16.15;4.05;;;;;;;;;;4994930;28;20096;-79
2023/03/29 09:32:43;;;;;;;7.13;3.25;;;;;;;;;;4986097;28;20475;-78
2023/03/29 09:35:17;;;;;;;8.63;4.18;;;;;;;;;;4991578;28;20042;-79
2023/03/29 09:37:43;;;;;;;7.47;3.75;;;;;;;;;;4996003;28;20117;-79
2023/03/29 09:40:14;;;;;;;8.10;4.40;;;;;;;;;;4996612;28;20057;-78
2023/03/29 09:42:41;;;;;;;8.68;4.47;;;;;;;;;;4997096;28;20544;-79
2023/03/29 09:45:10;;;;;;;7.05;3.70;;;;;;;;;;4986558;28;20121;-79
2023/03/29 09:47:49;;;;;;;10.48;4.00;;;;;;;;;;5009320;28;20092;-78
2023/03/29 09:50:35;;;;;;;7.40;3.70;;;;;;;;;;5010963;28;20029;-77
2023/03/29 09:53:01;;;;;;;6.78;4.05;;;;;;;;;;5001090;28;20041;-78
2023/03/29 09:55:39;;;;;;;11.68;4.72;;;;;;;;;;5005409;28;20042;-79
2023/03/29 09:58:31;;;;;;;10.98;6.32;;;;;;;;;;4987272;28;20697;-78
2023/03/29 10:01:01;;;;;;;9.57;4.15;;;;;;;;;;4994511;28;20042;-79
2023/03/29 10:03:28;;;;;;;7.55;3.67;;;;;;;;;;4971690;28;20061;-81
2023/03/29 10:05:55;;;;;;;7.82;2.80;;;;;;;;;;4980975;28;20034;-81
2023/03/29 10:08:41;;;;;;;9.88;4.95;;;;;;;;;;4993897;28;20192;-78
2023/03/29 10:11:11;;;;;;;11.98;4.70;;;;;;;;;;5001682;28;20086;-78
2023/03/29 10:13:43;;;;;;;7.90;3.70;;;;;;;;;;4991940;28;20038;-80
2023/03/29 10:16:22;;;;;;;4.85;2.83;;;;;;;;;;4978113;28;20038;-79
2023/03/29 10:18:49;;;;;;;11.48;5.35;;;;;;;;;;5006917;28;20128;-79
2023/03/29 10:21:20;;;;;;;14.20;3.13;;;;;;;;;;5004280;28;20030;-76
2023/03/29 10:23:47;;;;;;;7.40;3.72;;;;;;;;;;5008681;28;20137;-78
2023/03/29 10:26:42;;;;;;;9.18;3.72;;;;;;;;;;5004545;28;20044;-78
2023/03/29 10:29:42;;;;;;;8.63;3.10;;;;;;;;;;4997105;28;20103;-80
2023/03/29 10:32:37;;;;;;;;;;;;;;;;;;5002159;28;20030;-80
2023/03/29 10:35:40;;;;;;;7.07;3.30;;;;;;;;;;5000385;28;19918;-78
2023/03/29 10:38:09;;;;;;;5.47;3.00;;;;;;;;;;4953328;28;20034;-78
2023/03/29 10:40:34;;;;;;;7.63;3.30;;;;;;;;;;4974466;28;20123;-80
2023/03/29 10:43:10;;;;;;;5.78;2.83;;;;;;;;;;4988628;28;20503;-78
2023/03/29 10:45:36;;;;;;;7.13;3.50;;;;;;;;;;5002723;28;20088;-76
2023/03/29 10:48:03;;;;;;;19.45;9.80;;;;;;;;;;4958319;28;20185;-80
2023/03/29 10:50:33;;;;;;;6.57;3.50;;;;;;;;;;4987776;28;20277;-79
2023/03/29 10:52:59;;;;;;;5.43;4.15;;;;;;;;;;5007330;28;20076;-79
2023/03/29 10:55:27;;;;;;;7.57;4.22;;;;;;;;;;5009514;28;20068;-81
2023/03/29 10:58:14;;;;;;;3.50;2.30;;;;;;;;;;5010219;28;20054;-79
2023/03/29 11:00:47;;;;;;;4.10;2.67;;;;;;;;;;5011852;28;20098;-79
2023/03/29 11:03:25;;;;;;;5.75;2.67;;;;;;;;;;5006505;28;20068;-82
2023/03/29 11:06:26;;;;;;;5.53;3.08;;;;;;;;;;5001123;28;20057;-82
2023/03/29 11:08:54;;;;;;;;;;;;;;;;;;4969772;28;20037;-83
2023/03/29 11:11:48;;;;;;;8.25;2.58;;;;;;;;;;5003230;28;19909;-80
2023/03/29 11:14:41;;;;;;;4.95;2.83;;;;;;;;;;4990038;28;20069;-80
2023/03/29 11:17:10;;;;;;;7.72;2.95;;;;;;;;;;4999324;28;20030;-79
2023/03/29 11:19:58;;;;;;;6.45;2.92;;;;;;;;;;5005274;28;20022;-77
2023/03/29 11:22:46;;;;;;;6.95;2.80;;;;;;;;;;5002527;28;20022;-76
2023/03/29 11:25:30;;;;;;;5.70;2.42;;;;;;;;;;5003113;28;20056;-78
2023/03/29 11:28:11;;;;;;;9.13;2.53;;;;;;;;;;5009670;28;20042;-78
2023/03/29 11:31:01;;;;;;;3.33;2.45;;;;;;;;;;4994072;28;20039;-78
2023/03/29 11:33:33;;;;;;;9.80;2.75;;;;;;;;;;4987116;28;20064;-80
2023/03/29 11:36:50;;;;;;;5.00;2.15;;;;;;;;;;4995237;28;20022;-79
2023/03/29 11:39:27;;;;;;;6.50;2.78;;;;;;;;;;4981621;28;20211;-78
2023/03/29 11:41:54;;;;;;;6.47;2.67;;;;;;;;;;5004919;28;20038;-80
2023/03/29 11:44:23;;;;;;;11.20;3.47;;;;;;;;;;4989500;28;20419;-78
2023/03/29 11:46:49;;;;;;;6.07;3.78;;;;;;;;;;5007487;28;20026;-79
2023/03/29 11:49:26;;;;;;;7.97;2.38;;;;;;;;;;5007842;28;20501;-79
2023/03/29 11:52:06;;;;;;;4.15;2.60;;;;;;;;;;5007915;28;20022;-77
2023/03/29 11:54:43;;;;;;;4.18;2.22;;;;;;;;;;4992461;28;20022;-78
2023/03/29 11:57:45;;;;;;;5.25;3.33;;;;;;;;;;4991240;28;20157;-78
2023/03/29 12:00:23;;;;;;;7.22;4.95;;;;;;;;;;4989312;28;20391;-77
2023/03/29 12:02:51;;;;;;;5.28;2.30;;;;;;;;;;5021354;28;20025;-77
2023/03/29 12:05:20;;;;;;;6.25;2.50;;;;;;;;;;5011302;28;20064;-77
2023/03/29 12:08:05;;;;;;;7.65;2.72;;;;;;;;;;4978176;28;20022;-78
2023/03/29 12:10:36;;;;;;;7.03;2.65;;;;;;;;;;5011597;28;20443;-79
2023/03/29 12:13:16;;;;;;;6.22;2.90;;;;;;;;;;5011159;28;20041;-82
2023/03/29 12:15:46;;;;;;;7.28;2.28;;;;;;;;;;4979605;28;20128;-77
2023/03/29 12:18:27;;;;;;;3.97;2.20;;;;;;;;;;4995597;28;20092;-79
2023/03/29 12:20:57;;;;;;;;;;;;;;;;;;4988346;28;20108;-79
2023/03/29 12:23:22;;;;;;;3.63;2.35;;;;;;;;;;5014139;28;19966;-77
2023/03/29 12:26:07;;;;;;;4.85;2.05;;;;;;;;;;4996866;28;20030;-80
2023/03/29 12:29:04;;;;;;;2.60;1.98;;;;;;;;;;4999973;28;20132;-79
2023/03/29 12:31:51;;;;;;;6.38;2.20;;;;;;;;;;5022665;28;20040;-78
2023/03/29 12:34:34;;;;;;;3.47;1.65;;;;;;;;;;5002379;28;20553;-78
2023/03/29 12:37:12;;;;;;;3.92;2.13;;;;;;;;;;5018463;28;20026;-79
2023/03/29 12:39:37;;;;;;;6.40;2.67;;;;;;;;;;5014981;28;20087;-79
2023/03/29 12:42:13;;;;;;;6.68;2.50;;;;;;;;;;5019394;28;20030;-79
2023/03/29 12:44:38;;;;;;;4.90;2.42;;;;;;;;;;4981862;28;20183;-77
2023/03/29 12:47:04;;;;;;;4.20;2.22;;;;;;;;;;4999545;28;20064;-77
2023/03/29 12:49:34;;;;;;;5.55;2.80;;;;;;;;;;4998371;28;20084;-79
2023/03/29 12:52:01;;;;;;;;;;;;;;;;;;4998240;28;20115;-79
2023/03/29 12:54:27;;;;;;;3.33;1.92;;;;;;;;;;5014373;28;20000;-78
2023/03/29 12:57:00;;;;;;;3.60;2.20;;;;;;;;;;4981872;28;20132;-77
2023/03/29 12:59:37;;;;;;;3.03;2.08;;;;;;;;;;4998510;28;20037;-78
2023/03/29 13:02:24;;;;;;;4.35;1.98;;;;;;;;;;5026261;28;20499;-80
2023/03/29 13:04:55;;;;;;;3.92;2.40;;;;;;;;;;5013713;28;20033;-78
2023/03/29 13:07:21;;;;;;;7.93;2.45;;;;;;;;;;5001817;28;20043;-77
2023/03/29 13:09:52;;;;;;;4.47;2.60;;;;;;;;;;5035698;28;20033;-78
2023/03/29 13:12:27;;;;;;;3.72;2.40;;;;;;;;;;5034188;28;20482;-77
2023/03/29 13:15:06;;;;;;;5.05;2.70;;;;;;;;;;5035494;28;20450;-79
2023/03/29 13:17:47;;;;;;;6.88;2.58;;;;;;;;;;5003351;28;20036;-78
2023/03/29 13:20:20;;;;;;;5.57;2.97;;;;;;;;;;5017814;28;20446;-76
2023/03/29 13:23:13;;;;;;;4.57;2.80;;;;;;;;;;5018024;28;20026;-79
2023/03/29 13:25:57;;;;;;;5.13;2.97;;;;;;;;;;5035472;28;20025;-78
2023/03/29 13:28:25;;;;;;;5.70;2.30;;;;;;;;;;5035396;28;20036;-78
2023/03/29 13:30:57;;;;;;;4.03;2.88;;;;;;;;;;5034668;28;20437;-78
2023/03/29 13:33:37;;;;;;;3.75;2.15;;;;;;;;;;5033901;28;20114;-78
2023/03/29 13:36:30;;;;;;;3.67;2.47;;;;;;;;;;5033962;28;20032;-78
2023/03/29 13:38:58;;;;;;;3.00;2.15;;;;;;;;;;5033876;28;20280;-79
2023/03/29 13:41:27;;;;;;;5.30;3.30;;;;;;;;;;5017379;28;20096;-78
2023/03/29 13:43:54;;;;;;;6.60;3.60;;;;;;;;;;5034590;28;20481;-78
2023/03/29 13:46:24;;;;;;;4.13;2.90;;;;;;;;;;5016865;28;20065;-79
2023/03/29 13:49:10;;;;;;;8.38;3.42;;;;;;;;;;5017221;28;20049;-79
2023/03/29 13:51:40;;;;;;;2.85;2.30;;;;;;;;;;5018440;28;20021;-79
2023/03/29 13:54:40;;;;;;;4.53;2.20;;;;;;;;;;5016898;28;20080;-78
2023/03/29 13:57:18;;;;;;;4.73;2.83;;;;;;;;;;5033116;28;20148;-78
2023/03/29 14:00:10;;;;;;;7.05;3.35;;;;;;;;;;5016644;28;20037;-77
2023/03/29 14:02:44;;;;;;;6.07;2.90;;;;;;;;;;5033820;28;20064;-77
2023/03/29 14:05:16;;;;;;;5.07;2.70;;;;;;;;;;5028456;28;20067;-77
2023/03/29 14:07:45;;;;;;;14.80;7.82;;;;;;;;;;5016394;28;20026;-76
2023/03/29 14:10:13;;;;;;;6.75;2.80;;;;;;;;;;5016402;28;20071;-78
2023/03/29 14:12:38;;;;;;;18.05;10.98;;;;;;;;;;4999782;28;20106;-77
2023/03/29 14:15:05;;;;;;;21.10;12.23;;;;;;;;;;5032373;28;20033;-77
2023/03/29 14:17:30;;;;;;;13.68;8.57;;;;;;;;;;5015863;28;20052;-78
2023/03/29 14:19:58;;;;;;;5.75;2.88;;;;;;;;;;4999796;28;20455;-79
2023/03/29 14:22:23;;;;;;;6.65;3.45;;;;;;;;;;5000003;28;20029;-78
2023/03/29 14:24:53;;;;;;;5.70;4.03;;;;;;;;;;4999299;28;20033;-78
2023/03/29 14:27:18;;;;;;;4.35;3.20;;;;;;;;;;5032577;28;20172;-78
2023/03/29 14:29:48;;;;;;;6.03;3.05;;;;;;;;;;5016732;28;20103;-79
2023/03/29 14:32:18;;;;;;;6.00;3.20;;;;;;;;;;5016490;28;20072;-78
2023/03/29 14:34:48;;;;;;;6.40;3.53;;;;;;;;;;5016946;28;20037;-79
2023/03/29 14:37:16;;;;;;;11.05;3.50;;;;;;;;;;5017035;28;20136;-79
2023/03/29 14:39:41;;;;;;;10.80;5.00;;;;;;;;;;5016799;28;20512;-78
2023/03/29 14:42:16;;;;;;;10.52;4.70;;;;;;;;;;5015923;28;20033;-78
2023/03/29 14:44:42;;;;;;;6.18;3.90;;;;;;;;;;5016579;28;20120;-80
2023/03/29 14:47:07;;;;;;;12.85;6.00;;;;;;;;;;5016426;28;20032;-77
2023/03/29 14:49:33;;;;;;;6.43;3.70;;;;;;;;;;5033025;28;20108;-79
2023/03/29 14:51:59;;;;;;;7.30;3.38;;;;;;;;;;5032735;28;20029;-79
2023/03/29 14:54:25;;;;;;;6.88;3.08;;;;;;;;;;5016328;28;20125;-77
2023/03/29 14:56:51;;;;;;;10.98;4.85;;;;;;;;;;5016413;28;20384;-79
2023/03/29 14:59:37;;;;;;;6.22;3.53;;;;;;;;;;5000016;28;20052;-77
2023/03/29 15:02:03;;;;;;;5.80;3.80;;;;;;;;;;5016651;28;20021;-77